Orange Grove, Texas
Current Conditions -  °F | °C
As of 5:56 PM on Wednesday 22 Oct 2014 (Local Time) from KNOG Reporting Station
Few Clouds Few Clouds  
Wind Chill: 82°   Ceiling: Unl
Heat Index: 83°   Visibility: 10mi
Dew Point: 63°   Wind: 13mph
Humidity: 52%   Direction: 130°SE
Pressure: 30.02"   Gusts: NA
Location:  27.96°N, 97.94°W
Report Text: KNOG 222256Z AUTO 13011KT 10SM FEW040 28/17 A3002 RMK AO2 SLP145 T02780172
Loading
Personal Weather Stations






























Interactive Weather Map
Tropical Storm Tracking
New forecast layout! Learn more

10-Day Weather Forecast

Advertisements
Track Severe Weather on mobile